sensor_id;sensor_type;location;lat;lon;timestamp;temperature;humidity
25753;DHT22;13600;50.816;4.416;2023-03-01T00:01:27;4.20;99.90
25753;DHT22;13600;50.816;4.416;2023-03-01T00:03:54;4.10;99.90
25753;DHT22;13600;50.816;4.416;2023-03-01T00:06:20;4.30;99.90
25753;DHT22;13600;50.816;4.416;2023-03-01T00:08:47;4.30;99.90
25753;DHT22;13600;50.816;4.416;2023-03-01T00:11:16;4.10;99.90
25753;DHT22;13600;50.816;4.416;2023-03-01T00:13:44;4.20;99.90
25753;DHT22;13600;50.816;4.416;2023-03-01T00:16:16;4.10;99.90
25753;DHT22;13600;50.816;4.416;2023-03-01T00:18:43;4.00;99.90
25753;DHT22;13600;50.816;4.416;2023-03-01T00:21:08;3.90;99.90
25753;DHT22;13600;50.816;4.416;2023-03-01T00:23:35;3.90;99.90
25753;DHT22;13600;50.816;4.416;2023-03-01T00:26:01;3.80;99.90
25753;DHT22;13600;50.816;4.416;2023-03-01T00:28:27;3.90;99.90
25753;DHT22;13600;50.816;4.416;2023-03-01T00:30:53;3.80;99.90
25753;DHT22;13600;50.816;4.416;2023-03-01T00:33:19;3.80;99.90
25753;DHT22;13600;50.816;4.416;2023-03-01T00:35:44;3.70;99.90
25753;DHT22;13600;50.816;4.416;2023-03-01T00:38:10;3.60;99.90
25753;DHT22;13600;50.816;4.416;2023-03-01T00:40:36;3.60;99.90
25753;DHT22;13600;50.816;4.416;2023-03-01T00:43:02;3.60;99.90
25753;DHT22;13600;50.816;4.416;2023-03-01T00:45:28;3.70;99.90
25753;DHT22;13600;50.816;4.416;2023-03-01T00:47:56;3.60;99.90
25753;DHT22;13600;50.816;4.416;2023-03-01T00:50:23;3.50;99.90
25753;DHT22;13600;50.816;4.416;2023-03-01T00:52:53;3.40;99.90
25753;DHT22;13600;50.816;4.416;2023-03-01T00:55:18;3.40;99.90
25753;DHT22;13600;50.816;4.416;2023-03-01T00:57:44;3.50;99.90
25753;DHT22;13600;50.816;4.416;2023-03-01T01:00:10;3.40;99.90
25753;DHT22;13600;50.816;4.416;2023-03-01T01:02:37;3.30;99.90
25753;DHT22;13600;50.816;4.416;2023-03-01T01:05:03;3.30;99.90
25753;DHT22;13600;50.816;4.416;2023-03-01T01:07:29;3.40;99.90
25753;DHT22;13600;50.816;4.416;2023-03-01T01:09:55;3.40;99.90
25753;DHT22;13600;50.816;4.416;2023-03-01T01:12:20;3.60;99.90
25753;DHT22;13600;50.816;4.416;2023-03-01T01:14:46;3.60;99.90
25753;DHT22;13600;50.816;4.416;2023-03-01T01:17:12;3.40;99.90
25753;DHT22;13600;50.816;4.416;2023-03-01T01:19:37;3.50;99.90
25753;DHT22;13600;50.816;4.416;2023-03-01T01:22:03;3.40;99.90
25753;DHT22;13600;50.816;4.416;2023-03-01T01:24:29;3.30;99.90
25753;DHT22;13600;50.816;4.416;2023-03-01T01:26:55;3.40;99.90
25753;DHT22;13600;50.816;4.416;2023-03-01T01:29:21;3.50;99.90
25753;DHT22;13600;50.816;4.416;2023-03-01T01:31:47;3.50;99.90
25753;DHT22;13600;50.816;4.416;2023-03-01T01:34:16;3.40;99.90
25753;DHT22;13600;50.816;4.416;2023-03-01T01:36:42;3.30;99.90
25753;DHT22;13600;50.816;4.416;2023-03-01T01:39:07;3.20;99.90
25753;DHT22;13600;50.816;4.416;2023-03-01T01:41:33;3.00;99.90
25753;DHT22;13600;50.816;4.416;2023-03-01T01:44:15;3.00;99.90
25753;DHT22;13600;50.816;4.416;2023-03-01T01:51:47;3.00;99.90
25753;DHT22;13600;50.816;4.416;2023-03-01T01:54:31;3.00;99.90
25753;DHT22;13600;50.816;4.416;2023-03-01T01:57:03;3.10;99.90
25753;DHT22;13600;50.816;4.416;2023-03-01T01:59:32;3.40;99.90
25753;DHT22;13600;50.816;4.416;2023-03-01T02:02:00;3.30;99.90
25753;DHT22;13600;50.816;4.416;2023-03-01T02:04:28;3.20;99.90
25753;DHT22;13600;50.816;4.416;2023-03-01T02:07:03;3.20;99.90
25753;DHT22;13600;50.816;4.416;2023-03-01T02:09:31;3.10;99.90
25753;DHT22;13600;50.816;4.416;2023-03-01T02:11:57;3.00;99.90
25753;DHT22;13600;50.816;4.416;2023-03-01T02:14:23;3.00;99.90
25753;DHT22;13600;50.816;4.416;2023-03-01T02:16:49;3.00;99.90
25753;DHT22;13600;50.816;4.416;2023-03-01T02:22:25;2.90;99.90
25753;DHT22;13600;50.816;4.416;2023-03-01T02:30:31;2.90;99.90
25753;DHT22;13600;50.816;4.416;2023-03-01T02:32:59;2.80;99.90
25753;DHT22;13600;50.816;4.416;2023-03-01T02:35:37;2.80;99.90
25753;DHT22;13600;50.816;4.416;2023-03-01T02:38:06;2.70;99.90
25753;DHT22;13600;50.816;4.416;2023-03-01T02:40:34;2.70;99.90
25753;DHT22;13600;50.816;4.416;2023-03-01T02:43:03;2.70;99.90
25753;DHT22;13600;50.816;4.416;2023-03-01T02:45:31;2.80;99.90
25753;DHT22;13600;50.816;4.416;2023-03-01T02:47:57;2.70;99.90
25753;DHT22;13600;50.816;4.416;2023-03-01T02:53:15;2.90;99.90
25753;DHT22;13600;50.816;4.416;2023-03-01T02:55:42;2.90;99.90
25753;DHT22;13600;50.816;4.416;2023-03-01T02:58:08;2.90;99.90
25753;DHT22;13600;50.816;4.416;2023-03-01T03:00:39;2.80;99.90
25753;DHT22;13600;50.816;4.416;2023-03-01T03:03:13;2.70;99.90
25753;DHT22;13600;50.816;4.416;2023-03-01T03:05:40;2.70;99.90
25753;DHT22;13600;50.816;4.416;2023-03-01T03:08:05;2.70;99.90
25753;DHT22;13600;50.816;4.416;2023-03-01T03:10:38;2.70;99.90
25753;DHT22;13600;50.816;4.416;2023-03-01T03:13:10;2.60;99.90
25753;DHT22;13600;50.816;4.416;2023-03-01T03:15:37;2.50;99.90
25753;DHT22;13600;50.816;4.416;2023-03-01T03:18:06;2.50;99.90
25753;DHT22;13600;50.816;4.416;2023-03-01T03:20:32;2.50;99.90
25753;DHT22;13600;50.816;4.416;2023-03-01T03:22:58;2.40;99.90
25753;DHT22;13600;50.816;4.416;2023-03-01T03:25:25;2.40;99.90
25753;DHT22;13600;50.816;4.416;2023-03-01T03:27:52;2.40;99.90
25753;DHT22;13600;50.816;4.416;2023-03-01T03:30:23;2.50;99.90
25753;DHT22;13600;50.816;4.416;2023-03-01T03:32:48;2.30;99.90
25753;DHT22;13600;50.816;4.416;2023-03-01T03:35:48;2.40;99.90
25753;DHT22;13600;50.816;4.416;2023-03-01T03:38:15;2.40;99.90
25753;DHT22;13600;50.816;4.416;2023-03-01T03:40:47;2.30;99.90
25753;DHT22;13600;50.816;4.416;2023-03-01T03:43:21;2.30;99.90
25753;DHT22;13600;50.816;4.416;2023-03-01T03:45:49;2.30;99.90
25753;DHT22;13600;50.816;4.416;2023-03-01T03:48:16;2.20;99.90
25753;DHT22;13600;50.816;4.416;2023-03-01T03:50:46;2.30;99.90
25753;DHT22;13600;50.816;4.416;2023-03-01T03:53:12;2.40;99.90
25753;DHT22;13600;50.816;4.416;2023-03-01T03:55:38;2.50;99.90
25753;DHT22;13600;50.816;4.416;2023-03-01T03:58:09;2.60;99.90
25753;DHT22;13600;50.816;4.416;2023-03-01T04:00:38;2.50;99.90
25753;DHT22;13600;50.816;4.416;2023-03-01T04:03:04;2.50;99.90
25753;DHT22;13600;50.816;4.416;2023-03-01T04:05:30;2.40;99.90
25753;DHT22;13600;50.816;4.416;2023-03-01T04:07:56;2.40;99.90
25753;DHT22;13600;50.816;4.416;2023-03-01T04:10:31;2.60;99.90
25753;DHT22;13600;50.816;4.416;2023-03-01T04:12:57;2.60;99.90
25753;DHT22;13600;50.816;4.416;2023-03-01T04:15:24;2.60;99.90
25753;DHT22;13600;50.816;4.416;2023-03-01T04:17:51;2.60;99.90
25753;DHT22;13600;50.816;4.416;2023-03-01T04:20:23;2.60;99.90
25753;DHT22;13600;50.816;4.416;2023-03-01T04:22:56;2.50;99.90
25753;DHT22;13600;50.816;4.416;2023-03-01T04:25:25;2.40;99.90
25753;DHT22;13600;50.816;4.416;2023-03-01T04:27:52;2.20;99.90
25753;DHT22;13600;50.816;4.416;2023-03-01T04:30:18;2.10;99.90
25753;DHT22;13600;50.816;4.416;2023-03-01T04:32:44;2.20;99.90
25753;DHT22;13600;50.816;4.416;2023-03-01T04:35:10;2.10;99.90
25753;DHT22;13600;50.816;4.416;2023-03-01T04:37:35;2.10;99.90
25753;DHT22;13600;50.816;4.416;2023-03-01T04:40:02;2.10;99.90
25753;DHT22;13600;50.816;4.416;2023-03-01T04:42:42;2.00;99.90
25753;DHT22;13600;50.816;4.416;2023-03-01T04:45:10;2.00;99.90
25753;DHT22;13600;50.816;4.416;2023-03-01T04:47:42;1.90;99.90
25753;DHT22;13600;50.816;4.416;2023-03-01T04:50:10;1.90;99.90
25753;DHT22;13600;50.816;4.416;2023-03-01T04:52:37;1.90;99.90
25753;DHT22;13600;50.816;4.416;2023-03-01T04:55:03;2.00;99.90
25753;DHT22;13600;50.816;4.416;2023-03-01T04:57:30;2.10;99.90
25753;DHT22;13600;50.816;4.416;2023-03-01T04:59:55;2.10;99.90
25753;DHT22;13600;50.816;4.416;2023-03-01T05:02:21;2.10;99.90
25753;DHT22;13600;50.816;4.416;2023-03-01T05:04:47;2.20;99.90
25753;DHT22;13600;50.816;4.416;2023-03-01T05:07:12;2.00;99.90
25753;DHT22;13600;50.816;4.416;2023-03-01T05:09:45;1.80;99.90
25753;DHT22;13600;50.816;4.416;2023-03-01T05:12:11;1.70;99.90
25753;DHT22;13600;50.816;4.416;2023-03-01T05:14:36;1.60;99.90
25753;DHT22;13600;50.816;4.416;2023-03-01T05:17:04;1.60;99.90
25753;DHT22;13600;50.816;4.416;2023-03-01T05:19:30;1.70;99.90
25753;DHT22;13600;50.816;4.416;2023-03-01T05:21:57;1.80;99.90
25753;DHT22;13600;50.816;4.416;2023-03-01T05:24:33;1.80;99.90
25753;DHT22;13600;50.816;4.416;2023-03-01T05:27:00;2.00;99.90
25753;DHT22;13600;50.816;4.416;2023-03-01T05:29:28;1.90;99.90
25753;DHT22;13600;50.816;4.416;2023-03-01T05:31:58;2.10;99.90
25753;DHT22;13600;50.816;4.416;2023-03-01T05:34:25;2.10;99.90
25753;DHT22;13600;50.816;4.416;2023-03-01T05:36:52;2.10;99.90
25753;DHT22;13600;50.816;4.416;2023-03-01T05:39:24;2.10;99.90
25753;DHT22;13600;50.816;4.416;2023-03-01T05:41:59;1.90;99.90
25753;DHT22;13600;50.816;4.416;2023-03-01T05:44:25;1.70;99.90
25753;DHT22;13600;50.816;4.416;2023-03-01T05:46:51;1.60;99.90
25753;DHT22;13600;50.816;4.416;2023-03-01T05:49:18;1.40;99.90
25753;DHT22;13600;50.816;4.416;2023-03-01T05:51:48;1.30;99.90
25753;DHT22;13600;50.816;4.416;2023-03-01T05:54:14;1.40;99.90
25753;DHT22;13600;50.816;4.416;2023-03-01T05:56:42;1.40;99.90
25753;DHT22;13600;50.816;4.416;2023-03-01T05:59:08;1.50;99.90
25753;DHT22;13600;50.816;4.416;2023-03-01T06:01:35;1.60;99.90
25753;DHT22;13600;50.816;4.416;2023-03-01T06:04:01;1.70;99.90
25753;DHT22;13600;50.816;4.416;2023-03-01T06:06:27;1.50;99.90
25753;DHT22;13600;50.816;4.416;2023-03-01T06:08:53;1.60;99.90
25753;DHT22;13600;50.816;4.416;2023-03-01T06:11:20;1.60;99.90
25753;DHT22;13600;50.816;4.416;2023-03-01T06:13:46;1.50;99.90
25753;DHT22;13600;50.816;4.416;2023-03-01T06:16:13;1.30;99.90
25753;DHT22;13600;50.816;4.416;2023-03-01T06:18:39;1.20;99.90
25753;DHT22;13600;50.816;4.416;2023-03-01T06:21:07;1.20;99.90
25753;DHT22;13600;50.816;4.416;2023-03-01T06:23:33;1.40;99.90
25753;DHT22;13600;50.816;4.416;2023-03-01T06:25:59;1.70;99.90
25753;DHT22;13600;50.816;4.416;2023-03-01T06:28:25;1.70;99.90
25753;DHT22;13600;50.816;4.416;2023-03-01T06:30:51;1.80;99.90
25753;DHT22;13600;50.816;4.416;2023-03-01T06:33:18;1.60;99.90
25753;DHT22;13600;50.816;4.416;2023-03-01T06:35:46;1.40;99.90
25753;DHT22;13600;50.816;4.416;2023-03-01T06:38:12;1.40;99.90
25753;DHT22;13600;50.816;4.416;2023-03-01T06:40:40;1.70;99.90
25753;DHT22;13600;50.816;4.416;2023-03-01T06:43:07;1.90;99.90
25753;DHT22;13600;50.816;4.416;2023-03-01T06:45:33;1.90;99.90
25753;DHT22;13600;50.816;4.416;2023-03-01T06:48:07;1.90;99.90
25753;DHT22;13600;50.816;4.416;2023-03-01T06:50:34;2.00;99.90
25753;DHT22;13600;50.816;4.416;2023-03-01T06:52:59;1.90;99.90
25753;DHT22;13600;50.816;4.416;2023-03-01T06:55:25;1.80;99.90
25753;DHT22;13600;50.816;4.416;2023-03-01T06:57:58;1.60;99.90
25753;DHT22;13600;50.816;4.416;2023-03-01T07:00:25;1.70;99.90
25753;DHT22;13600;50.816;4.416;2023-03-01T07:02:51;1.80;99.90
25753;DHT22;13600;50.816;4.416;2023-03-01T07:05:17;1.70;99.90
25753;DHT22;13600;50.816;4.416;2023-03-01T07:07:43;1.70;99.90
25753;DHT22;13600;50.816;4.416;2023-03-01T07:10:09;1.90;99.90
25753;DHT22;13600;50.816;4.416;2023-03-01T07:12:35;2.00;99.90
25753;DHT22;13600;50.816;4.416;2023-03-01T07:15:00;2.00;99.90
25753;DHT22;13600;50.816;4.416;2023-03-01T07:17:26;2.00;99.90
25753;DHT22;13600;50.816;4.416;2023-03-01T07:19:52;2.00;99.90
25753;DHT22;13600;50.816;4.416;2023-03-01T07:22:17;2.00;99.90
25753;DHT22;13600;50.816;4.416;2023-03-01T07:24:43;2.00;99.90
25753;DHT22;13600;50.816;4.416;2023-03-01T07:27:09;2.10;99.90
25753;DHT22;13600;50.816;4.416;2023-03-01T07:29:35;2.20;99.90
25753;DHT22;13600;50.816;4.416;2023-03-01T07:32:02;2.30;99.90
25753;DHT22;13600;50.816;4.416;2023-03-01T07:34:28;2.30;99.90
25753;DHT22;13600;50.816;4.416;2023-03-01T07:36:54;2.20;99.90
25753;DHT22;13600;50.816;4.416;2023-03-01T07:39:20;2.00;99.90
25753;DHT22;13600;50.816;4.416;2023-03-01T07:41:45;1.90;99.90
25753;DHT22;13600;50.816;4.416;2023-03-01T07:44:12;2.20;99.90
25753;DHT22;13600;50.816;4.416;2023-03-01T07:46:38;2.40;99.90
25753;DHT22;13600;50.816;4.416;2023-03-01T07:49:03;2.50;99.90
25753;DHT22;13600;50.816;4.416;2023-03-01T07:51:30;2.60;99.90
25753;DHT22;13600;50.816;4.416;2023-03-01T07:53:55;2.80;99.90
25753;DHT22;13600;50.816;4.416;2023-03-01T07:56:22;2.80;99.90
25753;DHT22;13600;50.816;4.416;2023-03-01T07:58:47;2.80;99.90
25753;DHT22;13600;50.816;4.416;2023-03-01T08:01:18;2.90;99.90
25753;DHT22;13600;50.816;4.416;2023-03-01T08:03:45;3.00;99.90
25753;DHT22;13600;50.816;4.416;2023-03-01T08:06:12;3.00;99.90
25753;DHT22;13600;50.816;4.416;2023-03-01T08:08:38;3.00;99.90
25753;DHT22;13600;50.816;4.416;2023-03-01T08:11:05;3.00;99.90
25753;DHT22;13600;50.816;4.416;2023-03-01T08:13:33;3.20;99.90
25753;DHT22;13600;50.816;4.416;2023-03-01T08:16:03;3.30;99.90
25753;DHT22;13600;50.816;4.416;2023-03-01T08:18:30;3.10;99.90
25753;DHT22;13600;50.816;4.416;2023-03-01T08:20:56;3.20;99.90
25753;DHT22;13600;50.816;4.416;2023-03-01T08:23:26;3.20;99.90
25753;DHT22;13600;50.816;4.416;2023-03-01T08:25:51;3.20;99.90
25753;DHT22;13600;50.816;4.416;2023-03-01T08:28:18;3.20;99.90
25753;DHT22;13600;50.816;4.416;2023-03-01T08:30:44;3.30;99.90
25753;DHT22;13600;50.816;4.416;2023-03-01T08:33:09;3.20;99.90
25753;DHT22;13600;50.816;4.416;2023-03-01T08:35:36;3.30;99.90
25753;DHT22;13600;50.816;4.416;2023-03-01T08:38:02;3.50;99.90
25753;DHT22;13600;50.816;4.416;2023-03-01T08:40:28;3.50;99.90
25753;DHT22;13600;50.816;4.416;2023-03-01T08:42:53;3.50;99.90
25753;DHT22;13600;50.816;4.416;2023-03-01T08:45:19;3.60;99.90
25753;DHT22;13600;50.816;4.416;2023-03-01T08:47:45;3.80;99.90
25753;DHT22;13600;50.816;4.416;2023-03-01T08:50:11;3.90;99.90
25753;DHT22;13600;50.816;4.416;2023-03-01T08:52:36;4.00;99.90
25753;DHT22;13600;50.816;4.416;2023-03-01T08:55:02;4.20;99.90
25753;DHT22;13600;50.816;4.416;2023-03-01T08:57:28;4.30;99.90
25753;DHT22;13600;50.816;4.416;2023-03-01T08:59:54;4.40;99.90
25753;DHT22;13600;50.816;4.416;2023-03-01T09:02:22;4.80;99.90
25753;DHT22;13600;50.816;4.416;2023-03-01T09:04:47;5.40;99.90
25753;DHT22;13600;50.816;4.416;2023-03-01T09:07:13;6.10;99.90
25753;DHT22;13600;50.816;4.416;2023-03-01T09:09:39;7.50;99.90
25753;DHT22;13600;50.816;4.416;2023-03-01T09:12:05;10.00;99.90
25753;DHT22;13600;50.816;4.416;2023-03-01T09:14:31;11.70;95.90
25753;DHT22;13600;50.816;4.416;2023-03-01T09:16:57;12.40;93.30
25753;DHT22;13600;50.816;4.416;2023-03-01T09:19:23;13.40;90.10
25753;DHT22;13600;50.816;4.416;2023-03-01T09:21:48;13.60;86.00
25753;DHT22;13600;50.816;4.416;2023-03-01T09:24:22;13.30;84.50
25753;DHT22;13600;50.816;4.416;2023-03-01T09:26:48;13.00;83.60
25753;DHT22;13600;50.816;4.416;2023-03-01T09:29:16;13.30;83.60
25753;DHT22;13600;50.816;4.416;2023-03-01T09:31:43;13.10;81.70
25753;DHT22;13600;50.816;4.416;2023-03-01T09:34:09;13.40;81.60
25753;DHT22;13600;50.816;4.416;2023-03-01T09:36:36;14.50;79.10
25753;DHT22;13600;50.816;4.416;2023-03-01T09:39:02;15.20;75.80
25753;DHT22;13600;50.816;4.416;2023-03-01T09:47:03;16.00;71.20
25753;DHT22;13600;50.816;4.416;2023-03-01T09:49:33;16.50;68.30
25753;DHT22;13600;50.816;4.416;2023-03-01T09:52:06;16.60;68.00
25753;DHT22;13600;50.816;4.416;2023-03-01T09:54:37;17.70;65.50
25753;DHT22;13600;50.816;4.416;2023-03-01T10:02:30;17.60;62.60
25753;DHT22;13600;50.816;4.416;2023-03-01T10:10:35;18.60;57.30
25753;DHT22;13600;50.816;4.416;2023-03-01T10:18:37;17.70;59.60
25753;DHT22;13600;50.816;4.416;2023-03-01T10:21:25;17.70;59.10
25753;DHT22;13600;50.816;4.416;2023-03-01T10:23:52;17.70;58.90
25753;DHT22;13600;50.816;4.416;2023-03-01T10:26:55;17.90;58.10
25753;DHT22;13600;50.816;4.416;2023-03-01T10:29:28;17.80;58.00
25753;DHT22;13600;50.816;4.416;2023-03-01T10:31:55;17.50;58.30
25753;DHT22;13600;50.816;4.416;2023-03-01T10:34:28;17.70;57.00
25753;DHT22;13600;50.816;4.416;2023-03-01T10:36:57;17.60;56.90
25753;DHT22;13600;50.816;4.416;2023-03-01T10:39:25;18.30;57.00
25753;DHT22;13600;50.816;4.416;2023-03-01T10:44:45;18.50;54.50
25753;DHT22;13600;50.816;4.416;2023-03-01T10:47:20;18.20;56.00
25753;DHT22;13600;50.816;4.416;2023-03-01T10:52:35;17.70;56.60
25753;DHT22;13600;50.816;4.416;2023-03-01T10:57:47;17.70;56.80
25753;DHT22;13600;50.816;4.416;2023-03-01T11:00:24;18.00;56.30
25753;DHT22;13600;50.816;4.416;2023-03-01T11:03:12;17.70;55.90
25753;DHT22;13600;50.816;4.416;2023-03-01T11:05:51;17.40;56.30
25753;DHT22;13600;50.816;4.416;2023-03-01T11:08:40;17.90;55.80
25753;DHT22;13600;50.816;4.416;2023-03-01T11:16:45;20.40;52.70
25753;DHT22;13600;50.816;4.416;2023-03-01T11:21:41;21.90;49.40
25753;DHT22;13600;50.816;4.416;2023-03-01T11:24:14;21.90;48.70
25753;DHT22;13600;50.816;4.416;2023-03-01T11:26:42;21.70;48.90
25753;DHT22;13600;50.816;4.416;2023-03-01T11:29:37;21.30;49.00
25753;DHT22;13600;50.816;4.416;2023-03-01T11:32:07;22.20;49.10
25753;DHT22;13600;50.816;4.416;2023-03-01T11:37:35;23.10;46.30
25753;DHT22;13600;50.816;4.416;2023-03-01T11:40:29;22.70;46.60
25753;DHT22;13600;50.816;4.416;2023-03-01T12:06:43;23.80;43.60
25753;DHT22;13600;50.816;4.416;2023-03-01T12:17:20;23.60;43.90
25753;DHT22;13600;50.816;4.416;2023-03-01T12:20:11;22.40;43.90
25753;DHT22;13600;50.816;4.416;2023-03-01T12:25:39;24.20;43.00
25753;DHT22;13600;50.816;4.416;2023-03-01T12:28:22;23.60;42.50
25753;DHT22;13600;50.816;4.416;2023-03-01T12:39:13;23.80;41.90
25753;DHT22;13600;50.816;4.416;2023-03-01T12:41:48;24.10;41.60
25753;DHT22;13600;50.816;4.416;2023-03-01T12:45:22;24.50;40.90
25753;DHT22;13600;50.816;4.416;2023-03-01T12:50:59;23.90;41.30
25753;DHT22;13600;50.816;4.416;2023-03-01T12:53:36;23.80;40.90
25753;DHT22;13600;50.816;4.416;2023-03-01T12:56:11;24.10;41.40
25753;DHT22;13600;50.816;4.416;2023-03-01T12:59:15;24.30;41.00
25753;DHT22;13600;50.816;4.416;2023-03-01T13:01:48;24.90;40.80
25753;DHT22;13600;50.816;4.416;2023-03-01T13:04:35;25.00;39.30
25753;DHT22;13600;50.816;4.416;2023-03-01T13:07:15;24.80;40.10
25753;DHT22;13600;50.816;4.416;2023-03-01T13:17:52;25.70;39.70
25753;DHT22;13600;50.816;4.416;2023-03-01T13:23:29;24.70;39.00
25753;DHT22;13600;50.816;4.416;2023-03-01T13:28:51;22.50;41.40
25753;DHT22;13600;50.816;4.416;2023-03-01T13:33:52;22.60;41.70
25753;DHT22;13600;50.816;4.416;2023-03-01T13:36:45;22.70;42.50
25753;DHT22;13600;50.816;4.416;2023-03-01T13:39:27;22.90;41.00
25753;DHT22;13600;50.816;4.416;2023-03-01T13:41:55;22.20;42.10
25753;DHT22;13600;50.816;4.416;2023-03-01T13:44:37;23.40;41.40
25753;DHT22;13600;50.816;4.416;2023-03-01T13:49:58;23.10;41.80
25753;DHT22;13600;50.816;4.416;2023-03-01T13:52:45;23.00;41.30
25753;DHT22;13600;50.816;4.416;2023-03-01T13:57:44;21.30;41.80
25753;DHT22;13600;50.816;4.416;2023-03-01T14:00:37;20.40;43.30
25753;DHT22;13600;50.816;4.416;2023-03-01T14:03:19;21.20;43.70
25753;DHT22;13600;50.816;4.416;2023-03-01T14:08:35;21.70;42.10
25753;DHT22;13600;50.816;4.416;2023-03-01T14:11:44;21.10;42.20
25753;DHT22;13600;50.816;4.416;2023-03-01T14:14:29;20.60;43.70
25753;DHT22;13600;50.816;4.416;2023-03-01T14:19:37;20.90;43.30
25753;DHT22;13600;50.816;4.416;2023-03-01T14:22:34;21.10;43.40
25753;DHT22;13600;50.816;4.416;2023-03-01T14:25:05;21.50;42.50
25753;DHT22;13600;50.816;4.416;2023-03-01T14:27:40;21.50;43.00
25753;DHT22;13600;50.816;4.416;2023-03-01T14:30:14;21.90;42.80
25753;DHT22;13600;50.816;4.416;2023-03-01T14:32:42;21.80;42.70
25753;DHT22;13600;50.816;4.416;2023-03-01T14:35:34;21.30;42.50
25753;DHT22;13600;50.816;4.416;2023-03-01T14:38:02;21.50;42.50
25753;DHT22;13600;50.816;4.416;2023-03-01T14:40:33;21.00;42.50
25753;DHT22;13600;50.816;4.416;2023-03-01T14:43:02;20.80;43.50
25753;DHT22;13600;50.816;4.416;2023-03-01T14:45:33;20.40;45.00
25753;DHT22;13600;50.816;4.416;2023-03-01T14:48:02;20.40;44.90
25753;DHT22;13600;50.816;4.416;2023-03-01T14:50:30;20.90;44.60
25753;DHT22;13600;50.816;4.416;2023-03-01T14:52:59;21.50;42.80
25753;DHT22;13600;50.816;4.416;2023-03-01T14:55:32;21.30;43.20
25753;DHT22;13600;50.816;4.416;2023-03-01T14:58:00;21.20;43.50
25753;DHT22;13600;50.816;4.416;2023-03-01T15:00:30;21.60;43.60
25753;DHT22;13600;50.816;4.416;2023-03-01T15:03:04;21.00;43.20
25753;DHT22;13600;50.816;4.416;2023-03-01T15:05:35;20.30;43.70
25753;DHT22;13600;50.816;4.416;2023-03-01T15:08:03;19.10;44.40
25753;DHT22;13600;50.816;4.416;2023-03-01T15:10:36;18.80;46.00
25753;DHT22;13600;50.816;4.416;2023-03-01T15:13:12;18.20;46.60
25753;DHT22;13600;50.816;4.416;2023-03-01T15:15:46;17.70;47.60
25753;DHT22;13600;50.816;4.416;2023-03-01T15:20:44;17.90;48.30
25753;DHT22;13600;50.816;4.416;2023-03-01T15:23:23;17.90;47.80
25753;DHT22;13600;50.816;4.416;2023-03-01T15:25:51;17.80;47.70
25753;DHT22;13600;50.816;4.416;2023-03-01T15:28:27;17.90;48.10
25753;DHT22;13600;50.816;4.416;2023-03-01T15:33:49;18.30;47.70
25753;DHT22;13600;50.816;4.416;2023-03-01T15:36:43;18.10;47.20
25753;DHT22;13600;50.816;4.416;2023-03-01T15:39:34;17.40;48.50
25753;DHT22;13600;50.816;4.416;2023-03-01T15:42:12;17.50;48.70
25753;DHT22;13600;50.816;4.416;2023-03-01T15:44:40;17.50;48.80
25753;DHT22;13600;50.816;4.416;2023-03-01T15:47:25;17.40;49.00
25753;DHT22;13600;50.816;4.416;2023-03-01T15:49:53;17.70;49.10
25753;DHT22;13600;50.816;4.416;2023-03-01T15:52:33;17.50;48.70
25753;DHT22;13600;50.816;4.416;2023-03-01T15:55:04;17.20;49.30
25753;DHT22;13600;50.816;4.416;2023-03-01T15:57:34;17.20;49.30
25753;DHT22;13600;50.816;4.416;2023-03-01T16:00:00;17.10;48.40
25753;DHT22;13600;50.816;4.416;2023-03-01T16:02:26;16.70;49.40
25753;DHT22;13600;50.816;4.416;2023-03-01T16:04:54;16.10;49.60
25753;DHT22;13600;50.816;4.416;2023-03-01T16:07:21;15.30;50.50
25753;DHT22;13600;50.816;4.416;2023-03-01T16:09:47;14.60;51.80
25753;DHT22;13600;50.816;4.416;2023-03-01T16:12:16;14.30;52.30
25753;DHT22;13600;50.816;4.416;2023-03-01T16:14:42;13.80;52.70
25753;DHT22;13600;50.816;4.416;2023-03-01T16:17:08;13.40;53.20
25753;DHT22;13600;50.816;4.416;2023-03-01T16:19:36;12.90;54.50
25753;DHT22;13600;50.816;4.416;2023-03-01T16:22:03;12.40;55.60
25753;DHT22;13600;50.816;4.416;2023-03-01T16:24:29;12.10;56.10
25753;DHT22;13600;50.816;4.416;2023-03-01T16:26:55;12.00;57.20
25753;DHT22;13600;50.816;4.416;2023-03-01T16:29:21;11.80;57.20
25753;DHT22;13600;50.816;4.416;2023-03-01T16:31:46;11.80;57.60
25753;DHT22;13600;50.816;4.416;2023-03-01T16:34:13;11.70;57.50
25753;DHT22;13600;50.816;4.416;2023-03-01T16:36:39;11.50;57.60
25753;DHT22;13600;50.816;4.416;2023-03-01T16:39:04;11.30;58.20
25753;DHT22;13600;50.816;4.416;2023-03-01T16:41:30;11.30;58.10
25753;DHT22;13600;50.816;4.416;2023-03-01T16:43:56;11.30;58.40
25753;DHT22;13600;50.816;4.416;2023-03-01T16:46:24;11.20;58.50
25753;DHT22;13600;50.816;4.416;2023-03-01T16:48:50;10.90;58.60
25753;DHT22;13600;50.816;4.416;2023-03-01T16:51:16;10.80;59.20
25753;DHT22;13600;50.816;4.416;2023-03-01T16:53:43;10.70;59.70
25753;DHT22;13600;50.816;4.416;2023-03-01T16:56:10;10.70;60.20
25753;DHT22;13600;50.816;4.416;2023-03-01T16:58:39;10.50;60.60
25753;DHT22;13600;50.816;4.416;2023-03-01T17:01:14;10.50;60.80
25753;DHT22;13600;50.816;4.416;2023-03-01T17:03:41;10.50;61.20
25753;DHT22;13600;50.816;4.416;2023-03-01T17:06:11;10.50;61.70
25753;DHT22;13600;50.816;4.416;2023-03-01T17:08:38;10.40;61.70
25753;DHT22;13600;50.816;4.416;2023-03-01T17:11:10;10.30;62.10
25753;DHT22;13600;50.816;4.416;2023-03-01T17:13:36;10.30;62.30
25753;DHT22;13600;50.816;4.416;2023-03-01T17:16:04;10.40;62.70
25753;DHT22;13600;50.816;4.416;2023-03-01T17:18:30;10.20;63.10
25753;DHT22;13600;50.816;4.416;2023-03-01T17:20:56;10.20;63.30
25753;DHT22;13600;50.816;4.416;2023-03-01T17:23:22;10.20;63.40
25753;DHT22;13600;50.816;4.416;2023-03-01T17:25:52;10.10;63.80
25753;DHT22;13600;50.816;4.416;2023-03-01T17:28:21;10.00;64.50
25753;DHT22;13600;50.816;4.416;2023-03-01T17:30:47;10.00;64.70
25753;DHT22;13600;50.816;4.416;2023-03-01T17:33:13;10.10;64.70
25753;DHT22;13600;50.816;4.416;2023-03-01T17:35:40;10.00;65.50
25753;DHT22;13600;50.816;4.416;2023-03-01T17:38:06;9.90;65.90
25753;DHT22;13600;50.816;4.416;2023-03-01T17:40:32;10.00;65.60
25753;DHT22;13600;50.816;4.416;2023-03-01T17:43:00;10.20;65.80
25753;DHT22;13600;50.816;4.416;2023-03-01T17:45:26;10.10;66.00
25753;DHT22;13600;50.816;4.416;2023-03-01T17:47:52;10.10;66.00
25753;DHT22;13600;50.816;4.416;2023-03-01T17:50:17;10.20;66.20
25753;DHT22;13600;50.816;4.416;2023-03-01T17:52:44;10.10;66.10
25753;DHT22;13600;50.816;4.416;2023-03-01T17:55:10;10.20;66.60
25753;DHT22;13600;50.816;4.416;2023-03-01T17:57:40;10.00;67.40
25753;DHT22;13600;50.816;4.416;2023-03-01T18:00:11;9.90;68.00
25753;DHT22;13600;50.816;4.416;2023-03-01T18:02:37;9.90;68.00
25753;DHT22;13600;50.816;4.416;2023-03-01T18:05:03;9.90;68.00
25753;DHT22;13600;50.816;4.416;2023-03-01T18:07:29;9.70;68.50
25753;DHT22;13600;50.816;4.416;2023-03-01T18:09:55;9.60;69.00
25753;DHT22;13600;50.816;4.416;2023-03-01T18:12:22;9.60;69.70